.
WxDataArchive / Data Records for 2013-10-19
2013-10-18 October 2013 2013-10-20

Data Records for Saturday, 19 October 2013

Time	Temp	Chill	HIndex	Humid	Dewpt	 Wind 	HiWind	WindDir	Rain 	Barom 
-----	----	-----	------	-----	-----	------	------	-------	-----	----- 
00:00	42.8	42.8	42.8	85	38.6	0	0	---	0.00	29.941 
00:05	42.6	42.6	42.6	85	38.4	0	0	---	0.00	29.941 
00:10	42.5	42.5	42.5	85	38.3	0	0	---	0.00	29.941 
00:15	42.5	42.5	42.5	85	38.3	0	0	---	0.00	29.936 
00:20	42.3	42.3	42.3	85	38.1	0	0	---	0.00	29.936 
00:25	42.2	42.2	42.2	85	38.0	0	0	---	0.00	29.936 
00:30	42.2	42.2	42.2	85	38.0	0	0	---	0.00	29.931 
00:35	42.2	42.2	42.2	85	38.0	0	0	---	0.00	29.931 
00:40	42.2	42.2	42.2	86	38.3	0	0	---	0.00	29.931 
00:45	42.2	42.2	42.2	86	38.3	0	0	---	0.00	29.924 
00:50	42.2	42.2	42.2	86	38.3	0	0	---	0.00	29.924 
00:55	42.3	42.3	42.3	86	38.4	0	0	---	0.00	29.924 
01:00	42.3	42.3	42.3	86	38.4	0	0	---	0.00	29.913 
01:05	42.3	42.3	42.3	87	38.7	0	0	---	0.00	29.913 
01:10	42.3	42.3	42.3	87	38.7	0	0	---	0.00	29.913 
01:15	42.3	42.3	42.3	87	38.7	0	0	---	0.00	29.908 
01:20	42.3	42.3	42.3	87	38.7	0	0	---	0.00	29.908 
01:25	42.3	42.3	42.3	87	38.7	0	0	---	0.00	29.908 
01:30	42.3	42.3	42.3	87	38.7	0	0	---	0.00	29.911 
01:35	42.3	42.3	42.3	87	38.7	0	0	---	0.00	29.911 
01:40	42.2	42.2	42.2	87	38.6	0	0	---	0.00	29.911 
01:45	42.1	42.1	42.1	87	38.5	0	0	---	0.00	29.909 
01:50	41.9	41.9	41.9	87	38.3	0	0	---	0.00	29.909 
01:55	41.9	41.9	41.9	88	38.6	0	0	---	0.00	29.909 
02:00	41.8	41.8	41.8	88	38.5	0	0	---	0.00	29.913 
02:05	41.6	41.6	41.6	88	38.3	0	0	---	0.00	29.913 
02:10	41.5	41.5	41.5	88	38.2	0	0	---	0.00	29.913 
02:15	41.3	41.3	41.3	88	38.0	0	0	---	0.00	29.909 
02:20	41.3	41.3	41.3	88	38.0	0	0	---	0.00	29.909 
02:25	41.2	41.2	41.2	88	37.9	0	0	---	0.00	29.909 
02:30	41.1	41.1	41.1	88	37.8	0	0	---	0.00	29.909 
02:35	40.9	40.9	40.9	89	37.9	0	0	---	0.00	29.909 
02:40	40.8	40.8	40.8	89	37.8	0	0	---	0.00	29.909 
02:45	40.6	40.6	40.6	89	37.6	0	0	---	0.00	29.908 
02:50	40.5	40.5	40.5	89	37.5	0	0	---	0.00	29.908 
02:55	40.5	40.5	40.5	89	37.5	0	0	---	0.00	29.908 
03:00	40.3	40.3	40.3	89	37.3	0	0	---	0.00	29.910 
03:05	40.3	40.3	40.3	90	37.6	0	0	---	0.00	29.910 
03:10	40.3	40.3	40.3	90	37.6	0	0	---	0.00	29.910 
03:15	40.3	40.3	40.3	90	37.6	0	0	---	0.00	29.905 
03:20	40.3	40.3	40.3	90	37.6	0	0	---	0.00	29.905 
03:25	40.5	40.5	40.5	90	37.8	0	0	---	0.00	29.905 
03:30	40.5	40.5	40.5	90	37.8	0	0	---	0.00	29.907 
03:35	40.5	40.5	40.5	91	38.1	0	0	---	0.00	29.907 
03:40	40.6	40.6	40.6	91	38.2	0	0	---	0.00	29.907 
03:45	40.8	40.8	40.8	91	38.4	0	0	---	0.00	29.899 
03:50	40.9	40.9	40.9	91	38.5	0	0	---	0.00	29.899 
03:55	41.1	41.1	41.1	91	38.7	0	0	---	0.00	29.899 
04:00	41.1	41.1	41.1	91	38.7	0	0	---	0.00	29.887 
04:05	41.2	41.2	41.2	91	38.8	0	0	---	0.00	29.887 
04:10	41.3	41.3	41.3	91	38.9	0	0	---	0.00	29.887 
04:15	41.5	41.5	41.5	91	39.1	0	0	---	0.00	29.879 
04:20	41.5	41.5	41.5	91	39.1	0	0	---	0.00	29.879 
04:25	41.6	41.6	41.6	91	39.2	0	0	---	0.00	29.879 
04:30	41.6	41.6	41.6	91	39.2	0	0	---	0.00	29.877 
04:35	41.8	41.8	41.8	90	39.1	0	0	---	0.00	29.877 
04:40	41.9	41.9	41.9	90	39.2	0	0	---	0.00	29.877 
04:45	41.9	41.9	41.9	90	39.2	0	0	---	0.00	29.873 
04:50	41.9	41.9	41.9	90	39.2	0	0	---	0.00	29.873 
04:55	42.1	42.1	42.1	90	39.4	0	0	---	0.00	29.873 
05:00	42.1	42.1	42.1	90	39.4	0	0	---	0.00	29.868 
05:05	42.2	42.2	42.2	89	39.2	0	0	---	0.00	29.868 
05:10	42.2	42.2	42.2	89	39.2	0	1	270	0.00	29.868 
05:15	42.2	42.2	42.2	89	39.2	0	0	---	0.00	29.865 
05:20	42.3	42.3	42.3	89	39.3	0	1	270	0.00	29.865 
05:25	42.3	42.3	42.3	89	39.3	0	0	---	0.00	29.865 
05:30	42.5	42.5	42.5	89	39.5	0	0	---	0.00	29.865 
05:35	42.5	42.5	42.5	88	39.2	0	0	---	0.00	29.865 
05:40	42.5	42.5	42.5	88	39.2	0	1	270	0.00	29.865 
05:45	42.6	42.6	42.6	89	39.6	0	0	---	0.00	29.862 
05:50	42.6	42.6	42.6	89	39.6	0	0	---	0.00	29.862 
05:55	42.6	42.6	42.6	89	39.6	0	1	270	0.01	29.862 
06:00	42.6	42.6	42.6	89	39.6	0	0	---	0.00	29.856 
06:05	42.5	42.5	42.5	89	39.5	0	0	---	0.00	29.856 
06:10	42.5	42.5	42.5	90	39.8	0	0	---	0.00	29.856 
06:15	42.5	42.5	42.5	90	39.8	0	0	---	0.00	29.850 
06:20	42.5	42.5	42.5	90	39.8	0	0	---	0.01	29.850 
06:25	42.5	42.5	42.5	90	39.8	0	0	---	0.00	29.850 
06:30	42.5	42.5	42.5	91	40.1	0	0	---	0.00	29.849 
06:35	42.3	42.3	42.3	91	39.9	0	0	---	0.00	29.849 
06:40	42.3	42.3	42.3	91	39.9	0	0	---	0.01	29.849 
06:45	42.3	42.3	42.3	91	39.9	0	0	---	0.00	29.847 
06:50	42.3	42.3	42.3	91	39.9	0	0	---	0.01	29.847 
06:55	42.3	42.3	42.3	92	40.1	0	1	270	0.00	29.847 
07:00	42.3	42.3	42.3	92	40.1	0	0	---	0.01	29.847 
07:05	42.3	42.3	42.3	92	40.1	0	1	270	0.00	29.847 
07:10	42.3	42.3	42.3	92	40.1	0	0	---	0.01	29.847 
07:15	42.3	42.3	42.3	92	40.1	0	0	---	0.00	29.852 
07:20	42.3	42.3	42.3	92	40.1	0	1	270	0.00	29.852 
07:25	42.3	42.3	42.3	92	40.1	0	1	270	0.01	29.852 
07:30	42.3	42.3	42.3	92	40.1	0	0	---	0.00	29.851 
07:35	42.3	42.3	42.3	93	40.4	0	0	---	0.01	29.851 
07:40	42.3	42.3	42.3	93	40.4	0	0	---	0.00	29.851 
07:45	42.3	42.3	42.3	93	40.4	0	0	---	0.00	29.846 
07:50	42.3	42.3	42.3	93	40.4	0	0	---	0.01	29.846 
07:55	42.3	42.3	42.3	93	40.4	0	1	270	0.00	29.846 
08:00	42.3	42.3	42.3	93	40.4	0	0	---	0.01	29.849 
08:05	42.2	42.2	42.2	93	40.3	0	0	---	0.00	29.849 
08:10	42.2	42.2	42.2	93	40.3	0	1	270	0.00	29.849 
08:15	42.2	42.2	42.2	93	40.3	0	1	270	0.01	29.850 
08:20	42.2	42.2	42.2	93	40.3	0	0	---	0.00	29.850 
08:25	42.2	42.2	42.2	93	40.3	0	1	270	0.00	29.850 
08:30	42.2	42.2	42.2	93	40.3	0	1	270	0.00	29.853 
08:35	42.2	42.2	42.2	94	40.6	0	1	270	0.01	29.853 
08:40	42.2	42.2	42.2	94	40.6	0	1	270	0.00	29.853 
08:45	42.1	42.1	42.1	94	40.5	0	0	---	0.00	29.854 
08:50	42.1	42.1	42.1	94	40.5	0	1	270	0.00	29.854 
08:55	42.2	42.2	42.2	94	40.6	0	2	270	0.01	29.854 
09:00	42.1	42.1	42.1	94	40.5	0	1	270	0.00	29.855 
09:05	42.1	42.1	42.1	94	40.5	0	3	270	0.01	29.855 
09:10	41.9	41.9	41.9	94	40.3	0	3	270	0.00	29.855 
09:15	41.6	41.6	41.6	94	40.0	0	3	270	0.00	29.860 
09:20	41.5	41.5	41.5	94	39.9	0	2	270	0.01	29.860 
09:25	41.5	41.5	41.5	94	39.9	0	3	270	0.00	29.860 
09:30	41.3	41.3	41.3	94	39.7	0	1	270	0.01	29.861 
09:35	41.5	41.5	41.5	94	39.9	0	1	270	0.00	29.861 
09:40	41.5	41.5	41.5	94	39.9	0	1	270	0.00	29.861 
09:45	41.5	41.5	41.5	94	39.9	0	1	270	0.00	29.862 
09:50	41.3	41.3	41.3	94	39.7	0	3	270	0.01	29.862 
09:55	41.2	41.2	41.2	93	39.3	0	2	270	0.00	29.862 
10:00	41.2	41.2	41.2	94	39.6	0	1	270	0.00	29.860 
10:05	41.2	41.2	41.2	94	39.6	0	1	270	0.01	29.860 
10:10	41.3	41.3	41.3	94	39.7	0	1	270	0.00	29.860 
10:15	41.3	41.3	41.3	94	39.7	0	0	---	0.00	29.864 
10:20	41.3	41.3	41.3	94	39.7	0	1	270	0.01	29.864 
10:25	41.3	41.3	41.3	94	39.7	0	1	270	0.01	29.864 
10:30	41.2	41.2	41.2	94	39.6	0	1	270	0.01	29.857 
10:35	41.2	41.2	41.2	94	39.6	0	1	270	0.00	29.857 
10:40	41.3	41.3	41.3	94	39.7	0	1	270	0.01	29.857 
10:45	41.3	41.3	41.3	94	39.7	0	1	270	0.00	29.860 
10:50	41.5	41.5	41.5	94	39.9	0	1	270	0.00	29.860 
10:55	41.6	41.6	41.6	94	40.0	0	1	270	0.00	29.860 
11:00	41.8	41.8	41.8	94	40.2	0	1	270	0.00	29.850 
11:05	42.1	42.1	42.1	94	40.5	0	1	270	0.00	29.850 
11:10	42.1	42.1	42.1	94	40.5	0	1	270	0.00	29.850 
11:15	42.2	42.2	42.2	94	40.6	0	1	270	0.01	29.857 
11:20	42.2	42.2	42.2	94	40.6	0	1	270	0.00	29.857 
11:25	42.1	42.1	42.1	94	40.5	0	1	270	0.00	29.857 
11:30	42.1	42.1	42.1	94	40.5	0	1	270	0.00	29.853 
11:35	42.1	42.1	42.1	94	40.5	1	3	270	0.00	29.853 
11:40	42.1	42.1	42.1	94	40.5	0	2	270	0.00	29.853 
11:45	42.2	42.2	42.2	94	40.6	1	3	270	0.00	29.848 
11:50	42.2	42.2	42.2	94	40.6	0	3	270	0.00	29.848 
11:55	42.3	42.3	42.3	94	40.7	0	2	270	0.00	29.848 
12:00	42.2	42.2	42.2	94	40.6	1	5	270	0.01	29.843 
12:05	42.2	42.2	42.2	94	40.6	1	4	315	0.00	29.843 
12:10	42.1	42.1	42.1	94	40.5	2	5	315	0.00	29.843 
12:15	41.9	41.9	41.9	93	40.0	2	6	270	0.00	29.855 
12:20	41.9	41.9	41.9	93	40.0	1	3	270	0.01	29.855 
12:25	41.9	41.9	41.9	93	40.0	0	3	270	0.00	29.855 
12:30	42.1	42.1	42.1	93	40.2	1	3	270	0.00	29.847 
12:35	42.5	42.5	42.5	93	40.6	1	2	270	0.00	29.847 
12:40	42.8	42.8	42.8	92	40.6	1	3	270	0.00	29.847 
12:45	43.1	43.1	43.1	92	40.9	1	4	315	0.00	29.836 
12:50	43.8	43.8	43.8	92	41.6	0	2	315	0.00	29.836 
12:55	44.1	44.1	44.1	92	41.9	1	2	315	0.00	29.836 
13:00	44.1	44.1	44.1	91	41.6	0	1	315	0.00	29.830 
13:05	44.1	44.1	44.1	90	41.4	1	3	315	0.00	29.830 
13:10	44.1	44.1	44.1	90	41.4	0	3	315	0.00	29.830 
13:15	44.2	44.2	44.2	90	41.5	0	1	315	0.00	29.829 
13:20	44.6	44.6	44.6	90	41.9	0	3	315	0.00	29.829 
13:25	44.6	44.6	44.6	89	41.6	1	5	315	0.00	29.829 
13:30	44.6	44.6	44.6	87	41.0	1	6	315	0.00	29.829 
13:35	44.8	44.8	44.8	86	40.9	1	4	292	0.00	29.829 
13:40	45.5	45.5	45.5	86	41.6	1	4	292	0.00	29.829 
13:45	46.1	46.1	46.1	84	41.5	1	3	270	0.00	29.827 
13:50	46.2	46.2	46.2	84	41.6	1	4	270	0.00	29.827 
13:55	46.7	46.7	46.7	83	41.8	1	4	270	0.00	29.827 
14:00	47.4	47.4	47.4	81	41.9	1	4	270	0.00	29.823 
14:05	47.4	47.4	47.4	78	40.9	2	5	270	0.00	29.823 
14:10	47.4	47.4	47.4	77	40.6	1	4	292	0.00	29.823 
14:15	47.9	47.9	47.9	76	40.7	2	4	270	0.00	29.817 
14:20	48.3	48.3	48.3	74	40.4	1	4	292	0.00	29.817 
14:25	48.6	48.6	48.6	74	40.7	1	5	315	0.00	29.817 
14:30	48.9	48.9	48.9	73	40.6	1	4	270	0.00	29.814 
14:35	48.9	48.9	48.9	69	39.2	3	5	270	0.00	29.814 
14:40	49.1	49.1	49.1	69	39.4	1	5	270	0.00	29.814 
14:45	49.1	49.1	49.1	68	39.0	1	4	270	0.00	29.814 
14:50	48.9	48.9	48.9	67	38.4	0	2	270	0.00	29.814 
14:55	48.9	48.9	48.9	69	39.2	0	2	270	0.00	29.814 
15:00	48.9	48.9	48.9	66	38.0	2	5	270	0.00	29.812 
15:05	48.9	48.9	48.9	66	38.0	1	3	270	0.00	29.812 
15:10	48.9	48.9	48.9	65	37.7	1	4	292	0.00	29.812 
15:15	48.8	48.8	48.8	64	37.2	1	3	292	0.00	29.811 
15:20	48.8	48.8	48.8	62	36.4	2	5	292	0.00	29.811 
15:25	48.8	48.8	48.8	62	36.4	1	3	292	0.00	29.811 
15:30	48.9	48.9	48.9	62	36.5	1	4	292	0.00	29.812 
15:35	49.2	49.2	49.2	60	35.9	1	5	270	0.00	29.812 
15:40	49.5	49.5	49.5	61	36.6	1	3	292	0.00	29.812 
15:45	50.2	50.2	50.2	57	35.6	1	6	270	0.00	29.811 
15:50	50.1	50.1	50.1	52	33.2	2	7	270	0.00	29.811 
15:55	50.1	50.1	50.1	54	34.1	1	4	270	0.00	29.811 
16:00	49.9	49.9	49.9	54	33.9	1	5	270	0.00	29.810 
16:05	49.8	49.8	49.8	54	33.8	1	4	270	0.00	29.810 
16:10	49.8	49.8	49.8	55	34.3	0	3	270	0.00	29.810 
16:15	50.1	50.1	50.1	56	35.0	1	3	270	0.00	29.811 
16:20	50.8	50.8	50.8	53	34.3	2	6	270	0.00	29.811 
16:25	51.3	51.3	51.3	52	34.3	1	5	270	0.00	29.811 
16:30	51.6	51.6	51.6	53	35.0	1	3	292	0.00	29.811 
16:35	52.2	52.2	52.2	51	34.6	1	3	292	0.00	29.811 
16:40	52.0	52.0	52.0	50	33.9	1	4	270	0.00	29.811 
16:45	51.4	51.4	51.4	50	33.4	2	5	270	0.00	29.812 
16:50	51.0	51.0	51.0	51	33.5	1	4	292	0.00	29.812 
16:55	50.8	50.8	50.8	53	34.3	0	2	292	0.00	29.812 
17:00	50.7	50.7	50.7	53	34.2	0	1	292	0.00	29.813 
17:05	51.0	51.0	51.0	52	34.0	0	3	292	0.00	29.813 
17:10	51.4	51.4	51.4	52	34.4	1	3	292	0.00	29.813 
17:15	51.6	51.6	51.6	48	32.6	2	6	292	0.00	29.817 
17:20	51.6	51.6	51.6	48	32.6	1	4	292	0.00	29.817 
17:25	51.4	51.4	51.4	48	32.4	1	4	270	0.00	29.817 
17:30	51.6	51.6	51.6	50	33.6	0	3	270	0.00	29.822 
17:35	51.7	51.7	51.7	48	32.6	1	3	270	0.00	29.822 
17:40	51.4	51.4	51.4	49	32.9	1	3	248	0.00	29.822 
17:45	51.0	51.0	51.0	49	32.5	1	4	270	0.00	29.824 
17:50	50.7	50.7	50.7	51	33.2	0	3	270	0.00	29.824 
17:55	50.4	50.4	50.4	52	33.4	0	1	270	0.00	29.824 
18:00	50.2	50.2	50.2	52	33.3	0	3	270	0.00	29.830 
18:05	49.9	49.9	49.9	52	33.0	0	2	270	0.00	29.830 
18:10	49.8	49.8	49.8	53	33.4	0	2	270	0.00	29.830 
18:15	49.6	49.6	49.6	52	32.7	0	4	270	0.00	29.836 
18:20	49.6	49.6	49.6	53	33.2	0	2	270	0.00	29.836 
18:25	49.6	49.6	49.6	53	33.2	0	2	270	0.00	29.836 
18:30	49.6	49.6	49.6	53	33.2	1	3	270	0.00	29.837 
18:35	49.5	49.5	49.5	53	33.1	0	3	270	0.00	29.837 
18:40	49.4	49.4	49.4	53	33.0	0	2	270	0.00	29.837 
18:45	49.2	49.2	49.2	54	33.3	0	2	270	0.00	29.840 
18:50	48.9	48.9	48.9	54	33.0	0	1	270	0.00	29.840 
18:55	48.8	48.8	48.8	55	33.4	0	1	270	0.00	29.840 
19:00	48.5	48.5	48.5	55	33.1	0	1	270	0.00	29.842 
19:05	48.2	48.2	48.2	56	33.2	0	1	270	0.00	29.842 
19:10	48.0	48.0	48.0	57	33.5	0	2	270	0.00	29.842 
19:15	47.7	47.7	47.7	57	33.2	0	1	270	0.00	29.842 
19:20	47.6	47.6	47.6	58	33.6	0	1	270	0.00	29.842 
19:25	47.4	47.4	47.4	59	33.8	0	1	270	0.00	29.842 
19:30	47.3	47.3	47.3	60	34.1	0	1	270	0.00	29.848 
19:35	47.1	47.1	47.1	60	33.9	0	1	270	0.00	29.848 
19:40	47.1	47.1	47.1	60	33.9	0	1	270	0.00	29.848 
19:45	47.1	47.1	47.1	61	34.4	0	1	270	0.00	29.851 
19:50	47.1	47.1	47.1	61	34.4	0	1	270	0.00	29.851 
19:55	47.0	47.0	47.0	61	34.3	0	0	---	0.00	29.851 
20:00	46.8	46.8	46.8	62	34.5	0	1	270	0.00	29.858 
20:05	46.7	46.7	46.7	62	34.4	0	1	270	0.00	29.858 
20:10	46.4	46.4	46.4	62	34.1	0	1	270	0.00	29.858 
20:15	46.2	46.2	46.2	63	34.3	0	0	---	0.00	29.858 
20:20	46.0	46.0	46.0	64	34.5	0	0	---	0.00	29.858 
20:25	45.8	45.8	45.8	64	34.3	0	0	---	0.00	29.858 
20:30	45.5	45.5	45.5	65	34.4	0	1	270	0.00	29.859 
20:35	45.2	45.2	45.2	65	34.1	0	0	---	0.00	29.859 
20:40	45.1	45.1	45.1	66	34.4	0	1	270	0.00	29.859 
20:45	44.9	44.9	44.9	66	34.2	0	1	270	0.00	29.862 
20:50	44.8	44.8	44.8	67	34.5	0	0	---	0.00	29.862 
20:55	44.5	44.5	44.5	68	34.6	0	1	270	0.00	29.862 
21:00	44.3	44.3	44.3	68	34.4	0	1	270	0.00	29.867 
21:05	44.2	44.2	44.2	68	34.3	0	0	---	0.00	29.867 
21:10	44.2	44.2	44.2	68	34.3	0	1	270	0.00	29.867 
21:15	44.2	44.2	44.2	69	34.7	0	1	270	0.00	29.875 
21:20	44.2	44.2	44.2	69	34.7	0	1	270	0.00	29.875 
21:25	44.2	44.2	44.2	68	34.3	0	1	270	0.00	29.875 
21:30	44.2	44.2	44.2	69	34.7	0	1	270	0.00	29.878 
21:35	44.1	44.1	44.1	69	34.6	0	1	270	0.00	29.878 
21:40	44.1	44.1	44.1	69	34.6	0	1	270	0.00	29.878 
21:45	44.1	44.1	44.1	69	34.6	0	1	270	0.00	29.879 
21:50	44.1	44.1	44.1	69	34.6	0	1	270	0.00	29.879 
21:55	44.1	44.1	44.1	69	34.6	0	1	270	0.00	29.879 
22:00	44.1	44.1	44.1	69	34.6	0	1	270	0.00	29.879 
22:05	44.1	44.1	44.1	69	34.6	0	1	270	0.00	29.879 
22:10	44.1	44.1	44.1	68	34.2	0	1	270	0.00	29.879 
22:15	44.1	44.1	44.1	69	34.6	0	1	270	0.00	29.881 
22:20	44.1	44.1	44.1	68	34.2	0	1	270	0.00	29.881 
22:25	44.1	44.1	44.1	68	34.2	0	1	270	0.00	29.881 
22:30	44.1	44.1	44.1	68	34.2	0	1	270	0.00	29.889 
22:35	44.1	44.1	44.1	68	34.2	0	1	270	0.00	29.889 
22:40	44.1	44.1	44.1	68	34.2	0	2	270	0.00	29.889 
22:45	44.1	44.1	44.1	68	34.2	0	1	270	0.00	29.892 
22:50	43.9	43.9	43.9	68	34.0	0	2	315	0.00	29.892 
22:55	44.1	44.1	44.1	68	34.2	0	1	315	0.00	29.892 
23:00	44.2	44.2	44.2	68	34.3	0	3	315	0.00	29.892 
23:05	44.3	44.3	44.3	67	34.0	0	1	270	0.00	29.892 
23:10	44.3	44.3	44.3	67	34.0	0	1	270	0.00	29.892 
23:15	44.5	44.5	44.5	67	34.2	0	2	270	0.00	29.891 
23:20	44.3	44.3	44.3	67	34.0	0	1	270	0.00	29.891 
23:25	44.2	44.2	44.2	67	33.9	0	1	270	0.00	29.891 
23:30	44.1	44.1	44.1	68	34.2	0	2	270	0.00	29.893 
23:35	44.1	44.1	44.1	68	34.2	0	1	270	0.00	29.893 
23:40	44.1	44.1	44.1	69	34.6	0	0	---	0.00	29.893 
23:45	44.1	44.1	44.1	69	34.6	0	1	270	0.00	29.893 
23:50	43.9	43.9	43.9	69	34.4	0	1	270	0.00	29.893 
23:55	43.8	43.8	43.8	69	34.3	0	1	270	0.00	29.893 

CoCoRaHS
IN-AL-39
A2 Web Hosting
Creative Commons License
GoDaddy
search engine by freefind advanced

loaded 2018-11-15 16:09:21 • last modified 2010-11-18 10:43:29
Privacy PolicyDisclaimer
• wx.awcolley.com is powered by PmWiki v.2002016 •
• all content (unless otherwise noted) © 2018 A W Colley